Loos, Canada
Current Conditions -  °F | °C
As of 9:00 PM on Friday 24 Oct 2014 (Local Time) from CYXS Reporting Station
Clear Clear  
Wind Chill: 28°   Ceiling: Unl
Heat Index: 28°   Visibility: 9mi
Dew Point: 27°   Wind: 3mph
Humidity: 93%   Direction: 240°WSW
Pressure: 29.97"   Gusts: NA
Location:  53.6°N, 120.72°W
Report Text: CYXS 250400Z AUTO 24003KT 190V270 9SM CLR M02/M03 A2997 RMK SLP181
Loading
Personal Weather Stations






























Interactive Weather Map
Tropical Storm Tracking
New forecast layout! Learn more

10-Day Weather Forecast

Advertisements
Track Severe Weather on mobile